createdAt,value
2022-08-10T00:01:54.725Z,18.80
2022-08-10T00:04:33.086Z,18.80
2022-08-10T00:07:00.612Z,18.80
2022-08-10T00:09:27.857Z,18.80
2022-08-10T00:11:55.107Z,18.80
2022-08-10T00:14:22.661Z,18.80
2022-08-10T00:16:50.095Z,18.80
2022-08-10T00:19:18.249Z,18.70
2022-08-10T00:21:47.019Z,18.70
2022-08-10T00:24:14.624Z,18.60
2022-08-10T00:27:58.838Z,18.70
2022-08-10T00:29:29.833Z,18.60
2022-08-10T00:31:59.205Z,18.60
2022-08-10T00:34:35.332Z,18.60
2022-08-10T00:37:08.573Z,18.50
2022-08-10T00:39:39.337Z,18.50
2022-08-10T00:42:09.462Z,18.40
2022-08-10T00:44:42.106Z,18.40
2022-08-10T00:47:15.376Z,18.30
2022-08-10T00:49:58.047Z,18.30
2022-08-10T00:52:29.193Z,18.30
2022-08-10T00:54:57.092Z,18.20
2022-08-10T00:57:25.963Z,18.20
2022-08-10T00:59:58.915Z,18.20
2022-08-10T01:02:33.049Z,18.20
2022-08-10T01:05:11.803Z,18.10
2022-08-10T01:08:09.730Z,18.10
2022-08-10T01:10:59.493Z,18.10
2022-08-10T01:13:42.624Z,18.00
2022-08-10T01:16:39.078Z,18.00
2022-08-10T01:19:37.100Z,18.00
2022-08-10T01:26:12.128Z,18.00
2022-08-10T01:29:17.854Z,18.00
2022-08-10T01:31:51.865Z,18.00
2022-08-10T01:37:16.605Z,17.90
2022-08-10T01:39:53.507Z,17.90
2022-08-10T01:42:30.421Z,17.90
2022-08-10T01:45:01.235Z,17.90
2022-08-10T01:47:52.731Z,17.90
2022-08-10T01:50:53.274Z,17.90
2022-08-10T01:53:42.282Z,17.80
2022-08-10T01:56:16.086Z,17.80
2022-08-10T01:58:46.925Z,17.80
2022-08-10T02:01:59.667Z,17.70
2022-08-10T02:04:29.813Z,17.70
2022-08-10T02:07:04.142Z,17.70
2022-08-10T02:09:38.542Z,17.60
2022-08-10T02:12:16.136Z,17.50
2022-08-10T02:14:51.668Z,17.50
2022-08-10T02:17:57.988Z,17.40
2022-08-10T02:20:21.246Z,17.30
2022-08-10T02:22:57.059Z,17.30
2022-08-10T02:25:40.519Z,17.30
2022-08-10T02:28:30.062Z,17.20
2022-08-10T02:31:06.189Z,17.10
2022-08-10T02:33:57.504Z,17.10
2022-08-10T02:36:31.847Z,17.10
2022-08-10T02:39:05.192Z,17.10
2022-08-10T02:45:23.150Z,17.00
2022-08-10T02:45:24.590Z,17.00
2022-08-10T02:47:57.726Z,17.00
2022-08-10T02:50:31.129Z,16.90
2022-08-10T02:53:56.331Z,16.90
2022-08-10T02:57:00.456Z,16.80
2022-08-10T02:59:39.708Z,16.80
2022-08-10T03:02:11.522Z,16.80
2022-08-10T03:04:55.034Z,16.70
2022-08-10T03:07:42.819Z,16.70
2022-08-10T03:10:18.980Z,16.70
2022-08-10T03:12:51.471Z,16.60
2022-08-10T03:15:21.174Z,16.60
2022-08-10T03:17:57.682Z,16.60
2022-08-10T03:20:46.706Z,16.60
2022-08-10T03:23:35.722Z,16.60
2022-08-10T03:26:03.205Z,16.60
2022-08-10T03:28:52.860Z,16.50
2022-08-10T03:31:20.785Z,16.50
2022-08-10T03:33:49.401Z,16.50
2022-08-10T03:36:42.400Z,16.40
2022-08-10T03:39:12.561Z,16.40
2022-08-10T03:41:53.497Z,16.40
2022-08-10T03:44:25.169Z,16.40
2022-08-10T03:46:53.815Z,16.30
2022-08-10T03:49:23.093Z,16.30
2022-08-10T03:51:51.870Z,16.30
2022-08-10T03:54:19.966Z,16.30
2022-08-10T03:56:48.368Z,16.20
2022-08-10T03:59:17.472Z,16.20
2022-08-10T04:02:46.664Z,16.20
2022-08-10T04:04:35.717Z,16.20
2022-08-10T04:07:05.313Z,16.20
2022-08-10T04:09:55.496Z,16.20
2022-08-10T04:12:27.257Z,16.20
2022-08-10T04:14:55.698Z,16.20
2022-08-10T04:17:59.381Z,16.20
2022-08-10T04:21:10.153Z,16.20
2022-08-10T04:23:53.299Z,16.20
2022-08-10T04:37:47.301Z,16.20
2022-08-10T04:40:36.604Z,16.30
2022-08-10T04:43:31.616Z,16.30
2022-08-10T04:46:58.012Z,16.40
2022-08-10T04:52:29.734Z,16.50
2022-08-10T04:55:19.019Z,16.50
2022-08-10T04:57:47.929Z,16.60
2022-08-10T05:00:19.153Z,16.70
2022-08-10T05:02:47.155Z,16.70
2022-08-10T05:05:14.408Z,16.70
2022-08-10T05:07:53.967Z,16.80
2022-08-10T05:10:24.379Z,16.80
2022-08-10T05:12:51.878Z,16.90
2022-08-10T05:15:19.598Z,16.90
2022-08-10T05:18:08.326Z,17.00
2022-08-10T05:20:34.461Z,17.00
2022-08-10T05:23:01.659Z,17.20
2022-08-10T05:28:59.672Z,17.30
2022-08-10T05:31:33.022Z,17.50
2022-08-10T05:34:06.021Z,17.60
2022-08-10T05:37:00.684Z,17.60
2022-08-10T05:40:05.804Z,17.70
2022-08-10T05:42:54.802Z,17.80
2022-08-10T05:46:18.594Z,18.00
2022-08-10T05:48:59.033Z,18.10
2022-08-10T05:51:35.325Z,18.30
2022-08-10T05:54:15.599Z,18.40
2022-08-10T05:56:55.937Z,18.50
2022-08-10T06:00:29.334Z,18.60
2022-08-10T06:02:48.394Z,18.60
2022-08-10T06:06:18.979Z,18.70
2022-08-10T06:09:00.000Z,18.80
2022-08-10T06:16:04.680Z,19.20
2022-08-10T06:18:32.781Z,19.50
2022-08-10T06:24:33.991Z,20.60
2022-08-10T06:27:01.574Z,21.20
2022-08-10T06:29:43.453Z,21.70
2022-08-10T06:32:13.447Z,22.10
2022-08-10T06:34:47.275Z,22.50
2022-08-10T06:40:56.083Z,23.00
2022-08-10T06:43:29.602Z,23.00
2022-08-10T06:46:07.317Z,22.90
2022-08-10T06:48:49.384Z,22.90
2022-08-10T06:51:22.237Z,22.90
2022-08-10T06:54:58.374Z,22.90
2022-08-10T06:57:30.941Z,22.90
2022-08-10T07:00:01.107Z,23.30
2022-08-10T07:03:08.297Z,23.80
2022-08-10T07:05:45.915Z,24.30
2022-08-10T07:08:21.737Z,24.30
2022-08-10T07:10:57.296Z,24.20
2022-08-10T07:14:14.670Z,24.00
2022-08-10T07:16:13.904Z,23.70
2022-08-10T07:18:46.586Z,23.50
2022-08-10T07:21:33.210Z,23.50
2022-08-10T07:24:33.401Z,23.40
2022-08-10T07:27:12.148Z,23.40
2022-08-10T07:33:31.719Z,23.20
2022-08-10T07:35:59.361Z,23.10
2022-08-10T07:38:29.427Z,23.00
2022-08-10T07:41:00.885Z,22.90
2022-08-10T07:43:31.642Z,22.80
2022-08-10T07:46:22.209Z,22.70
2022-08-10T07:53:01.668Z,22.60
2022-08-10T07:56:21.266Z,22.50
2022-08-10T08:02:58.189Z,22.30
2022-08-10T08:06:02.832Z,22.30
2022-08-10T08:08:28.931Z,22.30
2022-08-10T08:11:26.262Z,22.20
2022-08-10T08:13:56.104Z,22.10
2022-08-10T08:16:30.176Z,22.10
2022-08-10T08:24:06.839Z,22.00
2022-08-10T08:24:43.816Z,22.00
2022-08-10T08:27:15.563Z,22.10
2022-08-10T08:29:45.855Z,22.10
2022-08-10T08:32:17.181Z,22.10
2022-08-10T08:34:57.663Z,22.20
2022-08-10T08:38:33.504Z,22.20
2022-08-10T08:42:25.332Z,22.30
2022-08-10T08:45:32.001Z,22.30
2022-08-10T08:48:29.370Z,22.30
2022-08-10T08:52:07.005Z,22.30
2022-08-10T08:55:00.841Z,22.40
2022-08-10T08:57:52.002Z,22.40
2022-08-10T09:00:28.495Z,22.50
2022-08-10T09:06:40.794Z,22.50
2022-08-10T09:09:54.800Z,22.50
2022-08-10T09:13:02.009Z,22.60
2022-08-10T09:15:57.481Z,22.60
2022-08-10T09:19:36.648Z,22.60
2022-08-10T09:22:37.686Z,22.70
2022-08-10T09:25:31.686Z,22.80
2022-08-10T09:29:12.028Z,22.80
2022-08-10T09:35:39.897Z,22.80
2022-08-10T09:36:24.401Z,22.90
2022-08-10T09:38:55.030Z,22.90
2022-08-10T09:42:03.113Z,22.90
2022-08-10T09:44:58.185Z,23.00
2022-08-10T09:48:15.236Z,23.00
2022-08-10T09:54:52.782Z,23.30
2022-08-10T09:58:04.290Z,23.40
2022-08-10T10:00:39.006Z,23.50
2022-08-10T10:04:13.802Z,23.60
2022-08-10T10:06:59.128Z,23.60
2022-08-10T10:09:55.212Z,23.70
2022-08-10T10:12:41.028Z,23.80
2022-08-10T10:15:45.933Z,24.10
2022-08-10T10:18:57.423Z,24.60
2022-08-10T10:21:54.497Z,25.10
2022-08-10T10:24:37.600Z,25.50
2022-08-10T10:27:25.550Z,25.90
2022-08-10T10:30:18.755Z,26.00
2022-08-10T10:33:14.427Z,26.20
2022-08-10T10:35:48.076Z,26.30
2022-08-10T10:38:19.087Z,26.30
2022-08-10T10:40:55.805Z,26.30
2022-08-10T10:44:04.166Z,26.30
2022-08-10T10:47:05.871Z,26.30
2022-08-10T10:49:52.015Z,26.40
2022-08-10T10:52:28.426Z,26.50
2022-08-10T10:55:20.939Z,26.50
2022-08-10T10:58:05.778Z,26.70
2022-08-10T11:01:10.775Z,26.70
2022-08-10T11:04:01.911Z,26.70
2022-08-10T11:06:48.210Z,26.60
2022-08-10T11:10:07.884Z,26.50
2022-08-10T11:12:34.388Z,26.60
2022-08-10T11:19:14.056Z,26.60
2022-08-10T11:27:21.511Z,26.70
2022-08-10T11:29:14.087Z,26.90
2022-08-10T11:35:46.955Z,27.30
2022-08-10T11:42:31.600Z,27.30
2022-08-10T11:45:51.486Z,27.40
2022-08-10T11:48:54.580Z,27.50
2022-08-10T11:51:44.520Z,27.60
2022-08-10T11:54:54.902Z,27.60
2022-08-10T11:57:26.079Z,27.50
2022-08-10T12:00:29.377Z,27.60
2022-08-10T12:03:12.872Z,27.70
2022-08-10T12:05:54.739Z,27.80
2022-08-10T12:10:03.506Z,27.90
2022-08-10T12:11:25.597Z,27.80
2022-08-10T12:14:23.058Z,27.90
2022-08-10T12:17:07.186Z,28.00
2022-08-10T12:19:59.363Z,28.00
2022-08-10T12:22:34.539Z,28.00
2022-08-10T12:25:09.747Z,28.00
2022-08-10T12:27:50.867Z,28.00
2022-08-10T12:30:22.377Z,27.80
2022-08-10T12:33:01.217Z,27.70
2022-08-10T12:36:17.483Z,27.60
2022-08-10T12:39:10.098Z,27.50
2022-08-10T12:41:51.739Z,27.50
2022-08-10T12:44:41.223Z,27.70
2022-08-10T12:47:25.024Z,27.70
2022-08-10T12:50:17.203Z,27.80
2022-08-10T12:52:53.663Z,27.80
2022-08-10T12:55:22.313Z,27.70
2022-08-10T12:57:54.609Z,27.70
2022-08-10T13:00:31.840Z,27.70
2022-08-10T13:03:02.363Z,27.60
2022-08-10T13:05:54.701Z,27.60
2022-08-10T13:08:42.003Z,27.70
2022-08-10T13:12:33.901Z,27.70
2022-08-10T13:14:12.465Z,27.70
2022-08-10T13:16:42.951Z,27.70
2022-08-10T13:19:11.260Z,27.80
2022-08-10T13:21:40.421Z,27.90
2022-08-10T13:24:15.179Z,28.00
2022-08-10T13:27:25.912Z,28.00
2022-08-10T13:29:51.694Z,28.10
2022-08-10T13:32:27.564Z,28.20
2022-08-10T13:34:59.433Z,28.30
2022-08-10T13:37:28.547Z,28.20
2022-08-10T13:40:01.124Z,28.20
2022-08-10T13:42:37.097Z,28.20
2022-08-10T13:45:20.726Z,28.10
2022-08-10T13:47:52.905Z,28.10
2022-08-10T13:50:35.054Z,28.10
2022-08-10T13:53:13.862Z,28.10
2022-08-10T13:55:55.356Z,28.10
2022-08-10T13:58:36.456Z,28.10
2022-08-10T14:01:14.325Z,28.00
2022-08-10T14:03:44.554Z,28.00
2022-08-10T14:06:17.616Z,27.90
2022-08-10T14:09:05.289Z,27.90
2022-08-10T14:11:35.452Z,28.00
2022-08-10T14:14:05.787Z,28.00
2022-08-10T14:16:35.068Z,28.10
2022-08-10T14:19:10.457Z,28.20
2022-08-10T14:21:42.134Z,28.20
2022-08-10T14:24:34.956Z,28.10
2022-08-10T14:27:15.777Z,28.10
2022-08-10T14:30:03.149Z,28.10
2022-08-10T14:32:32.480Z,28.20
2022-08-10T14:36:20.246Z,28.20
2022-08-10T14:38:14.396Z,28.20
2022-08-10T14:40:44.939Z,28.30
2022-08-10T14:43:28.774Z,28.30
2022-08-10T14:46:07.617Z,28.30
2022-08-10T14:48:41.169Z,28.30
2022-08-10T14:51:20.049Z,28.30
2022-08-10T14:54:06.575Z,28.20
2022-08-10T14:56:37.566Z,28.30
2022-08-10T14:59:07.744Z,28.20
2022-08-10T15:02:01.014Z,28.20
2022-08-10T15:04:37.373Z,28.30
2022-08-10T15:07:20.671Z,28.30
2022-08-10T15:10:01.394Z,28.30
2022-08-10T15:12:42.124Z,28.40
2022-08-10T15:15:16.381Z,28.40
2022-08-10T15:17:52.799Z,28.30
2022-08-10T15:20:23.075Z,28.30
2022-08-10T15:23:04.335Z,28.40
2022-08-10T15:25:36.442Z,28.40
2022-08-10T15:28:08.331Z,28.40
2022-08-10T15:30:43.890Z,28.40
2022-08-10T15:34:02.905Z,28.40
2022-08-10T15:36:47.786Z,28.40
2022-08-10T15:40:21.378Z,28.40
2022-08-10T15:42:24.676Z,28.50
2022-08-10T15:45:01.612Z,28.50
2022-08-10T15:47:45.371Z,28.40
2022-08-10T15:50:23.852Z,28.40
2022-08-10T15:53:00.879Z,28.30
2022-08-10T15:55:41.728Z,28.30
2022-08-10T15:58:20.057Z,28.30
2022-08-10T16:02:03.871Z,28.20
2022-08-10T16:04:16.654Z,28.10
2022-08-10T16:06:56.135Z,28.00
2022-08-10T16:10:22.196Z,28.00
2022-08-10T16:12:29.059Z,27.90
2022-08-10T16:15:00.166Z,27.90
2022-08-10T16:17:28.497Z,27.80
2022-08-10T16:19:59.342Z,27.80
2022-08-10T16:22:34.216Z,27.80
2022-08-10T16:25:12.540Z,27.80
2022-08-10T16:27:40.913Z,27.80
2022-08-10T16:30:08.442Z,27.80
2022-08-10T16:32:40.337Z,27.90
2022-08-10T16:35:16.020Z,27.80
2022-08-10T16:37:58.667Z,27.80
2022-08-10T16:40:29.707Z,27.80
2022-08-10T16:43:00.204Z,27.80
2022-08-10T16:45:41.555Z,27.70
2022-08-10T16:48:10.572Z,27.70
2022-08-10T16:50:42.553Z,27.60
2022-08-10T16:53:25.018Z,27.50
2022-08-10T16:55:58.059Z,27.40
2022-08-10T16:58:33.558Z,27.40
2022-08-10T17:01:08.398Z,27.40
2022-08-10T17:04:07.522Z,27.40
2022-08-10T17:06:42.741Z,27.30
2022-08-10T17:09:17.478Z,27.20
2022-08-10T17:11:48.622Z,27.10
2022-08-10T17:14:16.634Z,27.10
2022-08-10T17:16:57.326Z,27.10
2022-08-10T17:19:30.091Z,27.00
2022-08-10T17:21:59.810Z,27.00
2022-08-10T17:24:37.459Z,26.90
2022-08-10T17:28:05.030Z,26.90
2022-08-10T17:30:04.733Z,26.80
2022-08-10T17:32:43.831Z,26.70
2022-08-10T17:35:14.456Z,26.70
2022-08-10T17:37:49.042Z,26.70
2022-08-10T17:40:21.763Z,26.60
2022-08-10T17:42:55.850Z,26.50
2022-08-10T17:45:48.399Z,26.50
2022-08-10T17:48:19.296Z,26.40
2022-08-10T17:50:52.141Z,26.40
2022-08-10T17:53:24.898Z,26.40
2022-08-10T17:59:01.102Z,26.30
2022-08-10T18:01:40.653Z,26.30
2022-08-10T18:04:17.882Z,26.20
2022-08-10T18:06:52.612Z,26.20
2022-08-10T18:09:45.870Z,26.10
2022-08-10T18:12:18.483Z,26.10
2022-08-10T18:14:54.590Z,26.00
2022-08-10T18:17:26.922Z,25.90
2022-08-10T18:20:05.923Z,25.90
2022-08-10T18:22:36.742Z,25.80
2022-08-10T18:25:09.003Z,25.80
2022-08-10T18:28:01.673Z,25.70
2022-08-10T18:30:30.345Z,25.70
2022-08-10T18:33:04.846Z,25.60
2022-08-10T18:35:34.766Z,25.50
2022-08-10T18:38:03.319Z,25.50
2022-08-10T18:40:35.953Z,25.40
2022-08-10T18:44:07.849Z,25.30
2022-08-10T18:45:58.335Z,25.20
2022-08-10T18:48:48.981Z,25.10
2022-08-10T18:51:24.399Z,25.00
2022-08-10T18:53:57.867Z,25.00
2022-08-10T18:56:34.316Z,24.90
2022-08-10T18:59:31.688Z,24.90
2022-08-10T19:02:21.194Z,24.70
2022-08-10T19:05:30.879Z,24.60
2022-08-10T19:08:14.125Z,24.50
2022-08-10T19:11:01.494Z,24.40
2022-08-10T19:13:41.122Z,24.30
2022-08-10T19:16:19.780Z,24.20
2022-08-10T19:19:05.578Z,24.10
2022-08-10T19:22:16.927Z,24.10
2022-08-10T19:25:06.321Z,24.00
2022-08-10T19:28:06.800Z,23.90
2022-08-10T19:34:11.427Z,23.70
2022-08-10T19:36:52.918Z,23.70
2022-08-10T19:39:52.247Z,23.60
2022-08-10T19:42:55.449Z,23.50
2022-08-10T19:46:00.697Z,23.50
2022-08-10T19:48:28.545Z,23.50
2022-08-10T19:50:55.824Z,23.40
2022-08-10T19:54:02.448Z,23.30
2022-08-10T19:57:14.334Z,23.30
2022-08-10T20:00:28.628Z,23.20
2022-08-10T20:03:16.711Z,23.10
2022-08-10T20:06:27.691Z,23.00
2022-08-10T20:09:25.949Z,22.90
2022-08-10T20:12:07.247Z,22.90
2022-08-10T20:15:04.623Z,22.80
2022-08-10T20:21:24.183Z,22.70
2022-08-10T20:27:24.150Z,22.60
2022-08-10T20:30:13.246Z,22.60
2022-08-10T20:32:51.303Z,22.50
2022-08-10T20:35:30.742Z,22.40
2022-08-10T20:38:16.273Z,22.40
2022-08-10T20:40:47.401Z,22.30
2022-08-10T20:43:35.934Z,22.20
2022-08-10T20:46:27.805Z,22.20
2022-08-10T20:49:01.887Z,22.20
2022-08-10T20:51:58.609Z,22.20
2022-08-10T20:54:38.679Z,22.10
2022-08-10T20:57:53.618Z,22.10
2022-08-10T21:00:14.033Z,22.00
2022-08-10T21:03:07.106Z,21.90
2022-08-10T21:06:03.554Z,21.80
2022-08-10T21:09:10.151Z,21.80
2022-08-10T21:12:06.524Z,21.70
2022-08-10T21:15:01.933Z,21.60
2022-08-10T21:17:47.276Z,21.60
2022-08-10T21:20:35.575Z,21.50
2022-08-10T21:26:11.779Z,21.40
2022-08-10T21:28:59.032Z,21.40
2022-08-10T21:31:46.475Z,21.30
2022-08-10T21:34:35.004Z,21.30
2022-08-10T21:37:08.456Z,21.20
2022-08-10T21:39:52.816Z,21.20
2022-08-10T21:46:29.946Z,21.10
2022-08-10T21:49:24.146Z,21.10
2022-08-10T21:52:18.698Z,21.00
2022-08-10T21:55:58.310Z,20.90
2022-08-10T21:59:04.818Z,20.90
2022-08-10T22:02:13.738Z,20.90
2022-08-10T22:05:00.197Z,20.80
2022-08-10T22:07:49.591Z,20.80
2022-08-10T22:10:39.059Z,20.70
2022-08-10T22:13:27.992Z,20.70
2022-08-10T22:16:25.756Z,20.60
2022-08-10T22:19:19.367Z,20.60
2022-08-10T22:22:34.900Z,20.60
2022-08-10T22:25:38.219Z,20.50
2022-08-10T22:28:24.256Z,20.50
2022-08-10T22:31:24.650Z,21.50
2022-08-10T22:31:37.036Z,20.40
2022-08-10T22:34:58.790Z,20.40
2022-08-10T22:37:52.824Z,20.40
2022-08-10T22:40:41.382Z,20.30
2022-08-10T22:43:37.217Z,20.30
2022-08-10T22:46:31.541Z,20.20
2022-08-10T22:49:02.096Z,20.20
2022-08-10T22:51:53.455Z,20.10
2022-08-10T22:55:29.543Z,20.10
2022-08-10T22:58:15.445Z,20.00
2022-08-10T23:00:42.937Z,20.00
2022-08-10T23:03:24.399Z,19.90
2022-08-10T23:06:23.624Z,19.80
2022-08-10T23:08:59.246Z,19.80
2022-08-10T23:11:35.343Z,19.80
2022-08-10T23:14:10.311Z,19.70
2022-08-10T23:17:05.783Z,19.70
2022-08-10T23:19:47.206Z,19.60
2022-08-10T23:22:16.537Z,19.60
2022-08-10T23:24:55.347Z,19.60
2022-08-10T23:27:37.763Z,19.50
2022-08-10T23:30:17.152Z,19.40
2022-08-10T23:32:49.298Z,19.40
2022-08-10T23:36:04.413Z,19.40
2022-08-10T23:38:08.930Z,19.40
2022-08-10T23:40:36.947Z,19.30
2022-08-10T23:43:05.902Z,19.30
2022-08-10T23:45:53.536Z,19.30
2022-08-10T23:48:30.585Z,19.30
2022-08-10T23:51:01.578Z,19.20
2022-08-10T23:53:35.685Z,19.20
2022-08-10T23:56:22.459Z,19.20
2022-08-10T23:58:54.296Z,19.20
